Terminal Aerodrome Forecast
Issued by NWS

Current Version | Previous Version | Text Only | Print | Product List | Glossary On
Versions: 1 2 3 4 5 6 7 8 9 10 11 12 13 14 15
672
FTUS42 KTAE 031138
TAFABY
TAF
KABY 031138Z 0312/0412 27005KT P6SM BKN035
      TEMPO 0312/0314 3SM BR SCT007 BKN015
     FM031500 24008KT P6SM BKN030
     FM031900 27012KT 5SM TSRA BKN035CB
     FM040000 24005KT P6SM SCT040 BKN100
     FM040900 33004KT P6SM OVC050=

USA.gov is the U.S. government's official web portal to all federal, state and local government web resources and services.